Time;durP1;ratioP1;P1;durP2;ratioP2;P2;SDS_P1;SDS_P2;PMS_P1;PMS_P2;Temp;Humidity;BMP_temperature;BMP_pressure;BME280_temperature;BME280_humidity;BME280_pressure;Samples;Min_cycle;Max_cycle;Signal;HPM_P1;HPM_P2
2023/03/30 00:00:19;;;;;;;6.07;2.20;;;19.00;53.10;;;;;;5132837;27;20720;-78
2023/03/30 00:02:52;;;;;;;5.93;2.05;;;19.00;53.10;;;;;;5133528;27;20654;-78
2023/03/30 00:05:22;;;;;;;6.40;2.65;;;19.00;53.10;;;;;;5133496;27;20270;-78
2023/03/30 00:07:49;;;;;;;8.13;2.40;;;19.00;53.10;;;;;;5133604;27;20184;-78
2023/03/30 00:10:19;;;;;;;6.97;2.25;;;19.00;53.20;;;;;;5133765;27;20219;-78
2023/03/30 00:12:49;;;;;;;5.38;1.95;;;19.00;53.20;;;;;;5133269;27;20895;-78
2023/03/30 00:15:19;;;;;;;7.68;1.98;;;19.00;53.20;;;;;;5133022;27;20241;-78
2023/03/30 00:17:48;;;;;;;8.77;2.30;;;19.00;53.20;;;;;;5133090;27;20692;-78
2023/03/30 00:20:16;;;;;;;11.60;2.20;;;19.00;53.20;;;;;;5133343;27;20189;-78
2023/03/30 00:22:46;;;;;;;10.27;2.90;;;19.00;53.20;;;;;;5132270;27;20189;-78
2023/03/30 00:25:16;;;;;;;7.97;1.95;;;19.00;53.20;;;;;;5133509;27;20227;-78
2023/03/30 00:27:44;;;;;;;6.50;1.88;;;19.00;53.20;;;;;;5133196;27;20185;-78
2023/03/30 00:30:15;;;;;;;6.07;1.95;;;18.90;53.10;;;;;;5114390;28;20192;-78
2023/03/30 00:32:42;;;;;;;8.82;2.30;;;18.90;53.20;;;;;;5133340;27;20292;-78
2023/03/30 00:35:12;;;;;;;7.20;2.28;;;18.90;53.20;;;;;;5133308;27;20225;-78
2023/03/30 00:37:40;;;;;;;8.32;2.35;;;19.00;53.30;;;;;;5132998;27;20280;-78
2023/03/30 00:40:13;;;;;;;11.88;3.17;;;19.00;53.30;;;;;;5132994;27;20666;-78
2023/03/30 00:42:40;;;;;;;6.60;1.80;;;18.90;53.20;;;;;;5115571;27;20634;-78
2023/03/30 00:45:20;;;;;;;7.40;2.20;;;18.90;53.20;;;;;;5132181;28;20189;-78
2023/03/30 00:47:53;;;;;;;8.13;2.25;;;18.90;53.20;;;;;;5114938;27;20572;-77
2023/03/30 00:50:26;;;;;;;7.05;2.15;;;18.90;53.20;;;;;;5133219;28;20189;-78
2023/03/30 00:52:55;;;;;;;6.78;2.45;;;18.90;53.30;;;;;;5132927;27;20215;-78
2023/03/30 00:55:24;;;;;;;11.10;2.72;;;18.90;53.30;;;;;;5115226;28;20196;-78
2023/03/30 00:57:53;;;;;;;7.75;2.08;;;18.90;53.30;;;;;;5132113;27;20192;-78
2023/03/30 01:00:22;;;;;;;6.82;2.22;;;18.90;53.30;;;;;;5114643;28;20192;-78
2023/03/30 01:02:57;;;;;;;8.15;2.53;;;18.90;53.30;;;;;;5114808;27;20654;-78
2023/03/30 01:05:27;;;;;;;7.45;2.22;;;18.90;53.30;;;;;;5115442;28;20277;-78
2023/03/30 01:07:56;;;;;;;9.82;2.60;;;18.90;53.30;;;;;;5114755;27;20193;-78
2023/03/30 01:10:24;;;;;;;9.32;2.22;;;18.90;53.30;;;;;;5132851;28;20192;-78
2023/03/30 01:12:52;;;;;;;6.50;2.50;;;18.90;53.30;;;;;;5132238;27;20212;-78
2023/03/30 01:15:20;;;;;;;8.60;2.30;;;18.90;53.30;;;;;;5133060;28;20196;-78
2023/03/30 01:18:07;;;;;;;9.65;2.47;;;18.90;53.20;;;;;;5132604;27;20237;-78
2023/03/30 01:21:26;;;;;;;7.80;1.95;;;18.90;53.30;;;;;;5132875;28;20193;-77
2023/03/30 01:24:47;;;;;;;9.00;2.28;;;18.90;53.30;;;;;;5133126;27;20235;-78
2023/03/30 01:27:45;;;;;;;11.48;2.78;;;18.90;53.30;;;;;;5133201;28;20227;-78
2023/03/30 01:30:29;;;;;;;9.95;2.40;;;18.90;53.30;;;;;;5115683;28;20287;-78
2023/03/30 01:33:25;;;;;;;10.18;2.78;;;18.90;53.30;;;;;;5132782;27;20215;-78
2023/03/30 01:36:36;;;;;;;13.02;3.25;;;18.90;53.30;;;;;;5121429;27;20188;-78
2023/03/30 01:39:16;;;;;;;8.95;3.08;;;18.90;53.30;;;;;;5033114;28;20220;-78
2023/03/30 01:41:52;;;;;;;9.50;2.67;;;18.80;53.20;;;;;;5121529;27;20249;-78
2023/03/30 01:44:29;;;;;;;10.77;3.33;;;18.80;53.20;;;;;;5135881;27;20216;-78
2023/03/30 01:47:04;;;;;;;9.43;3.00;;;18.80;53.20;;;;;;5135859;27;20203;-78
2023/03/30 01:49:39;;;;;;;9.23;2.55;;;18.80;53.30;;;;;;5119115;27;20294;-77
2023/03/30 01:52:13;;;;;;;13.05;2.90;;;18.80;53.20;;;;;;5135992;27;20184;-78
2023/03/30 01:54:48;;;;;;;12.95;3.20;;;18.80;53.30;;;;;;5136511;27;20708;-78
2023/03/30 01:57:19;;;;;;;12.10;2.88;;;18.80;53.30;;;;;;5118142;27;20194;-78
2023/03/30 01:59:55;;;;;;;12.32;2.60;;;18.80;53.20;;;;;;5136172;27;20216;-78
2023/03/30 02:02:24;;;;;;;8.15;2.55;;;18.80;53.20;;;;;;5135735;27;20199;-77
2023/03/30 02:04:54;;;;;;;10.38;2.83;;;18.80;53.30;;;;;;5135718;27;20770;-78
2023/03/30 02:07:25;;;;;;;15.60;3.28;;;18.80;53.20;;;;;;5117915;27;20199;-78
2023/03/30 02:09:58;;;;;;;10.68;2.90;;;18.80;53.20;;;;;;5118279;27;20216;-78
2023/03/30 02:12:28;;;;;;;12.60;3.67;;;18.80;53.20;;;;;;5135614;27;20227;-78
2023/03/30 02:14:58;;;;;;;10.80;2.88;;;18.80;53.20;;;;;;5100166;27;20232;-77
2023/03/30 02:17:29;;;;;;;13.82;3.60;;;18.80;53.20;;;;;;5135575;27;20207;-78
2023/03/30 02:19:56;;;;;;;13.18;3.13;;;18.80;53.30;;;;;;5136165;27;20217;-78
2023/03/30 02:22:26;;;;;;;8.82;2.45;;;18.80;53.20;;;;;;5135595;27;20188;-78
2023/03/30 02:24:56;;;;;;;9.95;2.70;;;18.80;53.20;;;;;;5135818;27;20685;-78
2023/03/30 02:27:25;;;;;;;11.00;3.40;;;18.80;53.20;;;;;;5134744;27;20188;-78
2023/03/30 02:29:53;;;;;;;13.43;3.10;;;18.80;53.20;;;;;;5135267;27;20697;-78
2023/03/30 02:32:23;;;;;;;13.40;2.90;;;18.80;53.20;;;;;;5135352;27;20195;-78
2023/03/30 02:35:15;;;;;;;13.18;3.15;;;18.80;53.20;;;;;;5117220;27;20236;-77
2023/03/30 02:38:04;;;;;;;9.05;2.75;;;18.70;53.20;;;;;;5135855;27;20227;-78
2023/03/30 02:40:47;;;;;;;12.48;2.85;;;18.70;53.10;;;;;;5135499;27;20238;-78
2023/03/30 02:43:30;;;;;;;12.60;3.55;;;18.70;53.10;;;;;;5134432;27;20241;-78
2023/03/30 02:46:10;;;;;;;10.63;3.05;;;18.70;53.10;;;;;;5134161;27;20189;-78
2023/03/30 02:48:42;;;;;;;14.15;3.30;;;18.70;53.10;;;;;;5135019;27;20710;-78
2023/03/30 02:51:25;;;;;;;13.73;3.30;;;18.70;53.10;;;;;;5117083;27;20195;-78
2023/03/30 02:54:00;;;;;;;14.50;2.95;;;18.70;53.10;;;;;;5116635;27;20240;-77
2023/03/30 02:56:37;;;;;;;15.50;3.25;;;18.70;53.10;;;;;;5135132;27;20596;-78
2023/03/30 02:59:11;;;;;;;13.27;2.90;;;18.70;53.10;;;;;;5134312;27;20298;-78
2023/03/30 03:01:44;;;;;;;9.82;2.58;;;18.70;53.10;;;;;;5135141;27;20189;-78
2023/03/30 03:04:14;;;;;;;12.77;3.22;;;18.70;53.10;;;;;;5135046;27;20212;-77
2023/03/30 03:06:42;;;;;;;13.30;2.97;;;18.70;53.10;;;;;;5134168;27;20236;-78
2023/03/30 03:09:10;;;;;;;12.77;3.38;;;18.70;53.10;;;;;;5135054;27;20216;-78
2023/03/30 03:11:38;;;;;;;13.40;2.83;;;18.70;53.10;;;;;;5134895;27;20188;-78
2023/03/30 03:14:06;;;;;;;12.88;3.10;;;18.70;53.10;;;;;;5133830;27;20704;-78
2023/03/30 03:16:34;;;;;;;11.43;3.17;;;18.70;53.10;;;;;;5134525;27;20180;-76
2023/03/30 03:19:02;;;;;;;11.27;3.10;;;18.70;53.10;;;;;;5099420;27;20252;-77
2023/03/30 03:21:29;;;;;;;13.57;3.35;;;18.70;53.10;;;;;;5134333;27;20683;-78
2023/03/30 03:23:56;;;;;;;13.40;2.85;;;18.70;53.10;;;;;;5116119;27;20693;-78
2023/03/30 03:26:24;;;;;;;13.15;2.70;;;18.70;53.10;;;;;;5134635;27;20241;-78
2023/03/30 03:28:52;;;;;;;12.25;2.80;;;18.70;53.10;;;;;;5115322;27;20208;-78
2023/03/30 03:31:20;;;;;;;13.45;3.70;;;18.70;53.10;;;;;;5134219;27;20189;-78
2023/03/30 03:33:49;;;;;;;13.30;2.97;;;18.70;53.10;;;;;;5134238;27;20235;-78
2023/03/30 03:36:16;;;;;;;15.63;3.40;;;18.70;53.10;;;;;;5134200;27;20195;-78
2023/03/30 03:38:44;;;;;;;15.82;2.78;;;18.70;53.10;;;;;;5134374;27;20215;-78
2023/03/30 03:41:11;;;;;;;10.13;3.03;;;18.70;53.20;;;;;;5134313;27;20199;-78
2023/03/30 03:43:38;;;;;;;14.90;3.10;;;18.70;53.10;;;;;;5114912;27;20750;-78
2023/03/30 03:46:07;;;;;;;8.77;2.67;;;18.60;53.10;;;;;;5134176;27;20565;-78
2023/03/30 03:48:35;;;;;;;14.98;3.63;;;18.60;53.10;;;;;;5133998;27;20212;-78
2023/03/30 03:51:02;;;;;;;14.73;3.42;;;18.70;53.10;;;;;;5134137;27;20189;-77
2023/03/30 03:53:29;;;;;;;12.75;3.38;;;18.60;53.10;;;;;;5133927;27;20224;-77
2023/03/30 03:55:57;;;;;;;13.90;3.15;;;18.60;53.00;;;;;;5115474;27;20215;-78
2023/03/30 03:58:25;;;;;;;16.65;3.75;;;18.70;53.10;;;;;;5133310;27;20196;-78
2023/03/30 04:00:57;;;;;;;13.93;3.17;;;18.60;53.10;;;;;;5115183;27;20545;-77
2023/03/30 04:03:26;;;;;;;13.48;3.30;;;18.60;53.10;;;;;;5133541;27;20181;-78
2023/03/30 04:05:54;;;;;;;13.55;3.50;;;18.60;53.10;;;;;;5133780;27;20239;-78
2023/03/30 04:08:21;;;;;;;14.30;3.58;;;18.60;53.10;;;;;;5115904;27;20189;-78
2023/03/30 04:10:48;;;;;;;12.75;3.45;;;18.60;53.00;;;;;;5115021;27;20200;-78
2023/03/30 04:13:16;;;;;;;16.23;3.13;;;18.60;53.70;;;;;;5132263;27;20245;-78
2023/03/30 04:15:43;;;;;;;14.48;2.92;;;18.60;53.00;;;;;;5133337;27;20185;-78
2023/03/30 04:18:10;;;;;;;13.70;3.60;;;18.60;53.00;;;;;;5133572;27;20244;-77
2023/03/30 04:20:39;;;;;;;13.63;3.55;;;18.60;53.00;;;;;;5115067;27;20561;-78
2023/03/30 04:23:08;;;;;;;13.60;3.20;;;18.60;53.10;;;;;;5133608;27;20193;-78
2023/03/30 04:25:35;;;;;;;15.60;3.45;;;18.60;53.70;;;;;;5115669;27;20195;-77
2023/03/30 04:28:03;;;;;;;10.65;2.88;;;18.60;53.10;;;;;;5132619;27;20196;-78
2023/03/30 04:30:31;;;;;;;13.27;3.17;;;18.60;53.00;;;;;;5133093;27;20208;-78
2023/03/30 04:33:03;;;;;;;13.40;3.42;;;18.60;53.00;;;;;;5133078;27;20189;-77
2023/03/30 04:35:31;;;;;;;13.98;3.40;;;18.60;53.00;;;;;;5132820;27;20232;-77
2023/03/30 04:38:01;;;;;;;15.80;3.55;;;18.60;53.10;;;;;;5093769;28;20241;-77
2023/03/30 04:40:28;;;;;;;15.75;3.50;;;18.60;53.00;;;;;;5133149;27;20213;-77
2023/03/30 04:43:00;;;;;;;15.63;3.53;;;18.60;53.00;;;;;;5132828;27;20189;-77
2023/03/30 04:45:28;;;;;;;14.10;3.45;;;18.60;53.00;;;;;;5132844;27;20589;-77
2023/03/30 04:47:55;;;;;;;14.73;3.50;;;18.60;53.10;;;;;;5098570;28;20184;-78
2023/03/30 04:50:23;;;;;;;10.45;3.30;;;18.60;53.10;;;;;;5133343;27;20227;-77
2023/03/30 04:52:50;;;;;;;17.52;3.63;;;18.60;53.10;;;;;;5115136;28;20249;-78
2023/03/30 04:55:19;;;;;;;15.32;3.92;;;18.60;53.10;;;;;;5133080;27;20235;-78
2023/03/30 04:57:46;;;;;;;14.15;3.97;;;18.60;53.10;;;;;;5132530;28;20615;-77
2023/03/30 05:00:16;;;;;;;13.30;3.33;;;18.60;53.10;;;;;;5133164;27;20212;-78
2023/03/30 05:02:43;;;;;;;13.60;3.05;;;18.60;53.10;;;;;;5133187;28;20195;-78
2023/03/30 05:05:10;;;;;;;11.32;3.47;;;18.60;53.10;;;;;;5110862;28;20298;-77
2023/03/30 05:07:38;;;;;;;12.23;3.53;;;18.60;53.10;;;;;;5112937;28;20193;-77
2023/03/30 05:10:06;;;;;;;12.20;2.85;;;18.70;53.10;;;;;;5114672;28;20597;-77
2023/03/30 05:12:35;;;;;;;13.10;3.47;;;18.60;53.10;;;;;;5115880;28;20193;-77
2023/03/30 05:15:03;;;;;;;13.43;3.42;;;18.70;53.10;;;;;;5116236;28;20233;-77
2023/03/30 05:17:32;;;;;;;13.25;3.63;;;18.70;53.10;;;;;;5116598;28;20197;-78
2023/03/30 05:20:01;;;;;;;15.10;3.58;;;18.70;53.10;;;;;;5116583;28;20590;-78
2023/03/30 05:22:28;;;;;;;13.63;3.47;;;18.70;53.10;;;;;;5116443;28;20200;-78
2023/03/30 05:24:55;;;;;;;14.10;3.22;;;18.70;53.10;;;;;;5116477;28;20586;-77
2023/03/30 05:27:22;;;;;;;17.08;3.60;;;18.70;53.10;;;;;;5114239;28;20192;-77
2023/03/30 05:29:51;;;;;;;10.20;2.85;;;18.70;53.00;;;;;;5116388;28;20213;-77
2023/03/30 05:32:18;;;;;;;15.05;3.40;;;18.80;53.10;;;;;;5116342;28;20185;-77
2023/03/30 05:34:46;;;;;;;11.75;3.22;;;18.70;53.60;;;;;;5114744;28;20281;-77
2023/03/30 05:37:14;;;;;;;11.40;3.30;;;18.80;53.10;;;;;;5116132;28;20194;-77
2023/03/30 05:39:41;;;;;;;16.98;3.30;;;18.80;53.00;;;;;;5116328;27;20213;-77
2023/03/30 05:42:08;;;;;;;13.27;3.78;;;18.80;53.00;;;;;;5115190;28;20708;-77
2023/03/30 05:44:35;;;;;;;8.32;2.95;;;18.80;53.00;;;;;;5115773;28;20217;-77
2023/03/30 05:47:07;;;;;;;19.17;4.05;;;18.80;53.00;;;;;;5115688;28;20190;-78
2023/03/30 05:49:34;;;;;;;15.52;3.80;;;18.80;53.00;;;;;;5115622;28;20224;-77
2023/03/30 05:52:01;;;;;;;14.40;3.42;;;18.80;53.00;;;;;;5115886;28;20634;-78
2023/03/30 05:54:28;;;;;;;11.02;3.38;;;18.80;52.90;;;;;;5115851;28;20220;-78
2023/03/30 05:56:56;;;;;;;13.20;3.53;;;18.80;52.90;;;;;;5114731;28;20204;-77
2023/03/30 05:59:23;;;;;;;15.05;3.95;;;18.90;53.00;;;;;;5114600;28;20224;-77
2023/03/30 06:01:50;;;;;;;16.77;2.95;;;18.80;52.80;;;;;;5079643;28;20209;-77
2023/03/30 06:04:19;;;;;;;20.00;4.50;;;18.90;52.90;;;;;;5114104;28;20593;-77
2023/03/30 06:06:47;;;;;;;22.80;4.60;;;18.90;52.90;;;;;;5063268;28;20304;-81
2023/03/30 06:09:14;;;;;;;33.80;5.75;;;18.80;52.80;;;;;;5115668;28;20229;-81
2023/03/30 06:11:41;;;;;;;30.38;5.65;;;18.80;52.80;;;;;;5114761;28;20565;-81
2023/03/30 06:14:09;;;;;;;22.65;4.47;;;18.70;52.80;;;;;;5115137;28;20216;-81
2023/03/30 06:16:37;;;;;;;31.33;5.72;;;18.70;52.70;;;;;;5115227;28;20186;-83
2023/03/30 06:19:04;;;;;;;33.83;6.18;;;18.80;52.80;;;;;;5113899;28;20213;-76
2023/03/30 06:21:34;;;;;;;30.75;5.07;;;18.70;52.60;;;;;;5114004;28;20197;-77
2023/03/30 06:24:02;;;;;;;31.77;5.75;;;18.70;52.60;;;;;;5114901;28;20224;-78
2023/03/30 06:26:29;;;;;;;25.65;5.75;;;18.70;53.30;;;;;;5113368;28;20289;-80
2023/03/30 06:28:56;;;;;;;29.77;5.68;;;18.70;52.70;;;;;;5113759;28;20718;-81
2023/03/30 06:31:24;;;;;;;28.63;5.68;;;18.70;53.40;;;;;;5113831;28;20663;-78
2023/03/30 06:33:51;;;;;;;24.80;5.47;;;18.60;52.70;;;;;;5113995;28;20274;-77
2023/03/30 06:36:18;;;;;;;26.40;5.68;;;18.70;52.90;;;;;;5113686;28;20216;-77
2023/03/30 06:38:48;;;;;;;23.52;4.47;;;18.70;52.90;;;;;;5120118;27;20192;-77
2023/03/30 06:41:16;;;;;;;23.75;4.75;;;18.70;52.90;;;;;;5123374;27;20201;-76
2023/03/30 06:43:43;;;;;;;23.88;5.15;;;18.70;52.90;;;;;;5131108;27;20207;-75
2023/03/30 06:46:11;;;;;;;24.98;4.75;;;18.70;52.90;;;;;;5129924;27;20670;-77
2023/03/30 06:48:38;;;;;;;24.75;4.65;;;18.70;52.90;;;;;;5120292;27;20203;-77
2023/03/30 06:51:07;;;;;;;22.48;4.47;;;18.70;52.90;;;;;;5134032;27;20196;-77
2023/03/30 06:53:35;;;;;;;15.98;4.18;;;18.80;53.00;;;;;;5099469;27;20200;-79
2023/03/30 06:56:05;;;;;;;17.25;3.92;;;18.70;52.90;;;;;;5123224;27;20221;-77
2023/03/30 06:58:34;;;;;;;22.88;5.00;;;18.80;53.00;;;;;;5086935;28;20224;-79
2023/03/30 07:01:09;;;;;;;18.30;4.10;;;18.80;53.00;;;;;;5128090;27;20259;-78
2023/03/30 07:03:37;;;;;;;20.35;4.60;;;18.80;53.00;;;;;;5134816;27;20220;-79
2023/03/30 07:06:06;;;;;;;19.17;4.60;;;18.80;52.90;;;;;;5147544;27;20239;-79
2023/03/30 07:08:34;;;;;;;16.55;4.10;;;18.90;53.10;;;;;;5155418;27;20680;-79
2023/03/30 07:11:03;;;;;;;17.52;4.05;;;18.90;53.10;;;;;;5135973;27;20303;-79
2023/03/30 07:13:30;;;;;;;19.92;5.05;;;18.90;53.10;;;;;;5153944;27;20191;-80
2023/03/30 07:16:00;;;;;;;21.23;4.35;;;18.90;53.10;;;;;;5136483;27;20344;-79
2023/03/30 07:18:27;;;;;;;19.13;4.22;;;18.80;53.10;;;;;;5137494;27;20572;-79
2023/03/30 07:20:57;;;;;;;20.27;4.25;;;18.90;53.10;;;;;;5115930;27;20592;-79
2023/03/30 07:23:24;;;;;;;14.82;3.83;;;18.90;53.10;;;;;;5134289;27;20195;-79
2023/03/30 07:25:52;;;;;;;21.85;4.70;;;18.90;53.10;;;;;;5144817;27;20225;-79
2023/03/30 07:28:21;;;;;;;17.88;3.97;;;18.90;53.00;;;;;;5148538;27;20715;-79
2023/03/30 07:30:48;;;;;;;17.20;4.05;;;18.90;53.00;;;;;;5135730;27;20216;-80
2023/03/30 07:33:16;;;;;;;17.60;4.53;;;18.90;53.00;;;;;;5133610;27;20669;-80
2023/03/30 07:35:44;;;;;;;19.60;4.03;;;19.00;53.10;;;;;;5151767;27;20246;-80
2023/03/30 07:38:13;;;;;;;17.98;4.72;;;19.00;53.10;;;;;;5152933;27;20219;-80
2023/03/30 07:40:41;;;;;;;19.20;4.47;;;19.00;53.10;;;;;;5150700;27;20302;-78
2023/03/30 07:43:08;;;;;;;18.13;4.32;;;19.00;53.10;;;;;;5154326;27;20187;-81
2023/03/30 07:45:37;;;;;;;22.17;4.57;;;19.00;53.10;;;;;;5153073;27;20708;-79
2023/03/30 07:48:05;;;;;;;15.15;3.78;;;19.10;53.10;;;;;;5154501;27;20191;-76
2023/03/30 07:50:32;;;;;;;16.60;4.10;;;19.10;53.10;;;;;;5154517;27;20219;-78
2023/03/30 07:52:59;;;;;;;15.15;3.78;;;19.10;53.20;;;;;;5148224;27;20605;-77
2023/03/30 07:55:28;;;;;;;16.33;4.03;;;19.10;53.10;;;;;;5153699;27;20227;-80
2023/03/30 07:57:56;;;;;;;17.52;3.92;;;19.20;53.20;;;;;;5113580;27;20188;-80
2023/03/30 08:00:24;;;;;;;13.77;3.78;;;19.20;53.20;;;;;;5131032;27;20220;-80
2023/03/30 08:02:53;;;;;;;15.15;4.35;;;19.20;53.20;;;;;;5153881;27;20759;-77
2023/03/30 08:05:20;;;;;;;12.30;3.78;;;19.20;53.10;;;;;;5153832;27;20606;-80
2023/03/30 08:07:48;;;;;;;19.33;3.75;;;19.20;53.10;;;;;;5153516;27;20664;-80
2023/03/30 08:10:16;;;;;;;17.02;4.22;;;19.20;53.10;;;;;;5153644;27;20590;-79
2023/03/30 08:12:44;;;;;;;18.08;4.28;;;19.30;53.20;;;;;;5118462;27;20195;-77
2023/03/30 08:15:12;;;;;;;16.48;4.00;;;19.30;53.10;;;;;;5135199;27;20267;-78
2023/03/30 08:17:40;;;;;;;15.02;3.92;;;19.30;53.10;;;;;;5153250;27;20191;-78
2023/03/30 08:20:10;;;;;;;18.15;3.80;;;19.30;53.10;;;;;;5154598;27;20294;-80
2023/03/30 08:22:38;;;;;;;17.38;4.00;;;19.30;53.10;;;;;;5150894;27;20234;-78
2023/03/30 08:25:05;;;;;;;16.83;3.97;;;19.30;53.00;;;;;;5131144;27;20716;-78
2023/03/30 08:27:33;;;;;;;14.55;3.63;;;19.40;53.10;;;;;;5132772;27;20184;-79
2023/03/30 08:30:00;;;;;;;19.05;4.32;;;19.40;53.10;;;;;;5132092;27;20270;-79
2023/03/30 08:32:28;;;;;;;17.75;3.85;;;19.40;53.00;;;;;;5133111;27;20185;-79
2023/03/30 08:34:55;;;;;;;16.45;4.25;;;19.40;53.00;;;;;;5134684;27;20212;-78
2023/03/30 08:37:25;;;;;;;17.98;4.28;;;19.40;52.90;;;;;;5118440;27;20187;-81
2023/03/30 08:39:52;;;;;;;11.60;3.45;;;19.50;53.00;;;;;;5132969;27;20306;-78
2023/03/30 08:42:46;;;;;;;16.70;3.60;;;19.50;52.90;;;;;;5153244;27;20211;-78
2023/03/30 08:45:13;;;;;;;13.15;3.60;;;19.50;52.90;;;;;;5132382;27;20750;-80
2023/03/30 08:47:44;;;;;;;15.55;3.88;;;19.50;52.80;;;;;;5132852;27;20188;-81
2023/03/30 08:50:17;;;;;;;15.90;3.60;;;19.50;52.80;;;;;;5132929;28;20213;-78
2023/03/30 08:52:47;;;;;;;20.33;4.30;;;19.60;52.90;;;;;;5114862;27;20185;-79
2023/03/30 08:55:24;;;;;;;15.23;3.92;;;19.60;52.90;;;;;;5131787;28;20639;-79
2023/03/30 08:57:57;;;;;;;19.33;4.03;;;19.60;52.80;;;;;;5132683;27;20263;-79
2023/03/30 09:00:35;;;;;;;22.33;4.75;;;19.60;52.70;;;;;;5115199;28;20220;-79
2023/03/30 09:03:12;;;;;;;18.50;4.25;;;19.60;52.60;;;;;;5134144;27;20267;-79
2023/03/30 09:05:45;;;;;;;17.65;4.13;;;19.60;52.70;;;;;;5152873;27;20230;-80
2023/03/30 09:08:18;;;;;;;13.07;3.60;;;19.60;52.70;;;;;;5149648;27;20566;-79
2023/03/30 09:10:51;;;;;;;14.80;4.20;;;19.60;52.70;;;;;;5132302;28;20212;-78
2023/03/30 09:13:22;;;;;;;16.23;4.20;;;19.70;52.80;;;;;;5097413;28;20184;-79
2023/03/30 09:15:55;;;;;;;15.48;3.78;;;19.70;52.70;;;;;;5132177;27;20705;-80
2023/03/30 09:18:28;;;;;;;17.95;3.65;;;19.70;52.60;;;;;;5115086;28;20234;-82
2023/03/30 09:20:59;;;;;;;15.73;4.40;;;19.70;52.70;;;;;;5132606;28;20310;-80
2023/03/30 09:23:31;;;;;;;17.30;4.30;;;19.70;52.50;;;;;;5106367;27;20200;-79
2023/03/30 09:26:05;;;;;;;18.95;3.95;;;19.70;52.50;;;;;;5152822;27;20220;-80
2023/03/30 09:28:36;;;;;;;12.20;3.55;;;19.80;52.60;;;;;;5152972;27;20188;-81
2023/03/30 09:31:07;;;;;;;16.13;4.32;;;19.70;52.40;;;;;;5126182;27;20224;-79
2023/03/30 09:33:42;;;;;;;17.75;3.63;;;19.70;52.40;;;;;;5152388;27;20227;-79
2023/03/30 09:36:15;;;;;;;16.00;3.70;;;19.80;52.40;;;;;;5153075;27;20246;-78
2023/03/30 09:38:45;;;;;;;13.48;3.70;;;19.80;52.40;;;;;;5152914;27;20180;-81
2023/03/30 09:41:40;;;;;;;15.75;3.90;;;19.80;52.40;;;;;;5152660;27;20223;-81
2023/03/30 09:44:23;;;;;;;16.15;3.92;;;19.70;52.20;;;;;;5148373;27;20190;-82
2023/03/30 09:46:57;;;;;;;16.52;4.10;;;19.80;52.30;;;;;;5153023;27;20230;-82
2023/03/30 09:49:27;;;;;;;14.05;3.60;;;19.80;52.30;;;;;;5134538;27;20308;-79
2023/03/30 09:52:01;;;;;;;17.55;3.80;;;19.80;52.30;;;;;;5134701;27;20251;-82
2023/03/30 09:54:37;;;;;;;13.48;3.58;;;19.80;52.40;;;;;;5134248;27;20605;-79
2023/03/30 09:57:05;;;;;;;16.88;3.53;;;19.80;52.30;;;;;;5156562;27;20702;-81
2023/03/30 09:59:34;;;;;;;18.83;3.97;;;19.80;52.30;;;;;;5153843;27;20196;-80
2023/03/30 10:02:18;;;;;;;17.05;3.78;;;19.80;52.30;;;;;;5136206;27;20702;-80
2023/03/30 10:05:11;;;;;;;18.55;4.50;;;19.80;52.30;;;;;;5135448;27;20192;-82
2023/03/30 10:07:41;;;;;;;12.65;3.22;;;19.90;52.40;;;;;;5136068;27;20219;-81
2023/03/30 10:10:29;;;;;;;14.48;3.70;;;19.80;52.30;;;;;;5117062;27;20607;-82
2023/03/30 10:13:05;;;;;;;19.15;4.35;;;19.80;52.20;;;;;;5135606;27;20219;-83
2023/03/30 10:15:34;;;;;;;11.07;3.10;;;19.90;52.30;;;;;;5135592;27;20220;-80
2023/03/30 10:18:07;;;;;;;17.15;3.67;;;19.90;52.30;;;;;;5117370;27;20303;-79
2023/03/30 10:20:38;;;;;;;21.25;3.63;;;19.90;52.30;;;;;;5135377;27;20227;-83
2023/03/30 10:23:11;;;;;;;14.00;3.97;;;19.90;52.40;;;;;;5124886;27;20260;-81
2023/03/30 10:25:42;;;;;;;18.50;3.55;;;19.90;52.40;;;;;;5144637;27;20181;-81
2023/03/30 10:28:20;;;;;;;12.98;3.70;;;19.90;52.40;;;;;;5135592;27;20564;-79
2023/03/30 10:30:52;;;;;;;14.20;3.35;;;19.90;52.30;;;;;;5122908;27;20232;-78
2023/03/30 10:33:20;;;;;;;16.77;4.15;;;19.90;52.30;;;;;;5139005;27;20204;-78
2023/03/30 10:35:52;;;;;;;16.05;4.30;;;19.90;52.20;;;;;;5124760;27;20693;-79
2023/03/30 10:38:20;;;;;;;11.52;3.15;;;19.90;52.20;;;;;;5149294;27;20191;-78
2023/03/30 10:40:57;;;;;;;17.63;3.88;;;19.90;52.10;;;;;;5153871;27;20583;-79
2023/03/30 10:43:30;;;;;;;15.75;3.78;;;19.90;52.10;;;;;;5155464;27;20244;-79
2023/03/30 10:45:59;;;;;;;15.45;3.35;;;19.90;52.10;;;;;;5137180;27;20207;-79
2023/03/30 10:48:37;;;;;;;11.43;3.03;;;19.90;52.10;;;;;;5153545;27;20211;-79
2023/03/30 10:51:13;;;;;;;13.18;3.50;;;19.90;52.10;;;;;;5150176;27;20683;-79
2023/03/30 10:53:48;;;;;;;13.10;3.67;;;19.90;52.10;;;;;;5143936;27;20240;-79
2023/03/30 10:56:27;;;;;;;13.00;3.50;;;19.90;52.10;;;;;;5152775;27;20255;-79
2023/03/30 10:59:27;;;;;;;18.15;3.92;;;19.90;52.10;;;;;;5145293;27;20208;-78
2023/03/30 11:02:15;;;;;;;12.55;3.78;;;19.90;52.10;;;;;;5138124;27;20224;-79
2023/03/30 11:04:45;;;;;;;11.82;3.33;;;19.90;52.10;;;;;;5115211;27;20200;-79
2023/03/30 11:07:20;;;;;;;14.27;3.70;;;19.90;52.10;;;;;;5117991;27;20273;-78
2023/03/30 11:09:53;;;;;;;16.23;3.40;;;19.90;52.10;;;;;;5128958;27;20213;-78
2023/03/30 11:12:26;;;;;;;14.45;3.60;;;19.90;52.10;;;;;;5151594;27;20222;-80
2023/03/30 11:15:00;;;;;;;14.50;4.13;;;19.90;52.00;;;;;;5130909;27;20244;-81
2023/03/30 11:17:31;;;;;;;14.10;3.65;;;19.90;52.00;;;;;;5136117;27;20234;-82
2023/03/30 11:20:07;;;;;;;10.23;3.53;;;19.90;52.00;;;;;;5121269;27;20204;-81
2023/03/30 11:22:41;;;;;;;10.65;3.08;;;19.90;52.00;;;;;;5135217;27;20215;-81
2023/03/30 11:25:23;;;;;;;14.70;3.20;;;20.00;52.10;;;;;;5113563;27;20189;-80
2023/03/30 11:27:56;;;;;;;14.75;3.00;;;20.00;52.10;;;;;;5114037;27;20235;-81
2023/03/30 11:30:28;;;;;;;21.40;4.05;;;19.90;52.00;;;;;;5114642;27;20192;-82
2023/03/30 11:33:02;;;;;;;17.73;3.80;;;20.00;52.10;;;;;;5114713;27;20265;-81
2023/03/30 11:35:36;;;;;;;13.88;3.58;;;20.00;52.00;;;;;;5132650;27;20192;-81
2023/03/30 11:38:12;;;;;;;15.00;3.50;;;20.00;52.10;;;;;;5152723;27;20578;-80
2023/03/30 11:40:43;;;;;;;13.02;3.22;;;20.00;52.00;;;;;;5152864;27;20202;-80
2023/03/30 11:43:13;;;;;;;18.08;3.17;;;20.00;52.10;;;;;;5154845;27;20671;-79
2023/03/30 11:45:52;;;;;;;17.58;4.15;;;20.00;52.10;;;;;;5135579;27;20559;-80
2023/03/30 11:48:54;;;;;;;14.88;3.65;;;20.00;52.10;;;;;;5154525;27;20218;-79
2023/03/30 11:51:37;;;;;;;18.90;3.50;;;20.00;52.10;;;;;;5132916;27;20203;-77
2023/03/30 11:54:25;;;;;;;20.50;3.30;;;20.00;52.10;;;;;;5123317;27;20653;-73
2023/03/30 11:57:01;;;;;;;13.45;3.38;;;20.00;52.30;;;;;;5115018;27;20319;-79
2023/03/30 11:59:41;;;;;;;17.95;3.53;;;20.00;52.10;;;;;;5151314;27;20660;-76
2023/03/30 12:02:21;;;;;;;15.02;4.05;;;20.00;52.30;;;;;;5131472;27;20208;-75
2023/03/30 12:04:51;;;;;;;13.85;3.70;;;20.00;52.30;;;;;;5135913;27;20196;-76
2023/03/30 12:07:32;;;;;;;34.35;16.63;;;20.10;52.40;;;;;;5132686;27;20600;-75
2023/03/30 12:10:03;;;;;;;59.53;34.05;;;20.10;52.30;;;;;;5118319;27;20191;-78
2023/03/30 12:12:35;;;;;;;78.93;43.45;;;20.10;52.20;;;;;;5153541;27;20222;-80
2023/03/30 12:15:26;;;;;;;102.25;59.22;;;20.10;52.20;;;;;;5153846;27;20229;-77
2023/03/30 12:17:56;;;;;;;192.90;110.80;;;20.10;52.20;;;;;;5135180;27;20813;-79
2023/03/30 12:20:33;;;;;;;239.50;133.40;;;20.10;52.10;;;;;;5141901;27;20223;-80
2023/03/30 12:23:09;;;;;;;291.92;162.25;;;20.10;52.10;;;;;;5146709;27;20226;-77
2023/03/30 12:25:49;;;;;;;331.13;185.98;;;20.10;52.10;;;;;;5133434;27;20192;-77
2023/03/30 12:28:19;;;;;;;335.50;188.75;;;20.20;52.10;;;;;;5150618;27;20212;-77
2023/03/30 12:30:58;;;;;;;290.88;165.65;;;20.20;52.10;;;;;;5132223;27;20188;-80
2023/03/30 12:33:34;;;;;;;270.90;154.40;;;20.20;52.10;;;;;;5145339;27;20214;-83
2023/03/30 12:36:02;;;;;;;219.20;125.22;;;20.20;52.00;;;;;;5151996;27;20194;-80
2023/03/30 12:38:38;;;;;;;98.10;56.58;;;20.30;52.10;;;;;;5131496;27;20220;-81
2023/03/30 12:41:17;;;;;;;144.05;80.55;;;20.30;52.10;;;;;;5134784;27;20227;-75
2023/03/30 12:44:19;;;;;;;101.35;58.90;;;20.30;52.10;;;;;;5131732;27;20218;-81
2023/03/30 12:47:02;;;;;;;92.10;51.20;;;20.30;52.20;;;;;;5129218;27;20199;-78
2023/03/30 12:49:42;;;;;;;77.05;40.00;;;20.30;52.20;;;;;;5150372;27;20191;-78
2023/03/30 12:52:14;;;;;;;86.10;46.55;;;20.40;52.20;;;;;;5134810;27;20593;-79
2023/03/30 12:55:04;;;;;;;72.82;40.78;;;20.40;52.30;;;;;;5132564;27;20268;-80
2023/03/30 12:57:59;;;;;;;64.03;34.25;;;20.40;52.30;;;;;;5130513;27;20216;-79
2023/03/30 13:00:44;;;;;;;50.30;27.52;;;20.40;52.30;;;;;;5145956;27;20706;-76